sensor_id;sensor_type;location;lat;lon;timestamp;pressure;altitude;pressure_sealevel;temperature;humidity
45403;BME280;47427;51.976;5.326;2022-10-31T00:02:55;101980.31;;;12.33;100.00
45403;BME280;47427;51.976;5.326;2022-10-31T00:06:18;101990.22;;;12.40;100.00
45403;BME280;47427;51.976;5.326;2022-10-31T00:09:41;101988.56;;;12.42;100.00
45403;BME280;47427;51.976;5.326;2022-10-31T00:13:03;101987.78;;;12.45;100.00
45403;BME280;47427;51.976;5.326;2022-10-31T00:16:27;101993.03;;;12.45;100.00
45403;BME280;47427;51.976;5.326;2022-10-31T00:19:50;101989.22;;;12.36;100.00
45403;BME280;47427;51.976;5.326;2022-10-31T00:23:12;101991.06;;;12.39;100.00
45403;BME280;47427;51.976;5.326;2022-10-31T00:26:35;101996.53;;;12.44;100.00
45403;BME280;47427;51.976;5.326;2022-10-31T00:29:58;102001.78;;;12.44;100.00
45403;BME280;47427;51.976;5.326;2022-10-31T00:33:21;101987.56;;;12.39;100.00
45403;BME280;47427;51.976;5.326;2022-10-31T00:36:43;101992.84;;;12.40;100.00
45403;BME280;47427;51.976;5.326;2022-10-31T00:40:09;102008.72;;;12.42;100.00
45403;BME280;47427;51.976;5.326;2022-10-31T00:43:32;102010.38;;;12.40;100.00
45403;BME280;47427;51.976;5.326;2022-10-31T00:46:55;102006.75;;;12.36;100.00
45403;BME280;47427;51.976;5.326;2022-10-31T00:50:17;102017.31;;;12.38;100.00
45403;BME280;47427;51.976;5.326;2022-10-31T00:53:40;102015.19;;;12.27;100.00
45403;BME280;47427;51.976;5.326;2022-10-31T00:57:03;102021.59;;;12.11;100.00
45403;BME280;47427;51.976;5.326;2022-10-31T01:00:26;102012.41;;;12.00;100.00
45403;BME280;47427;51.976;5.326;2022-10-31T01:03:49;102009.78;;;12.00;100.00
45403;BME280;47427;51.976;5.326;2022-10-31T01:07:30;101996.16;;;11.88;100.00
45403;BME280;47427;51.976;5.326;2022-10-31T01:14:28;101995.38;;;11.90;100.00
45403;BME280;47427;51.976;5.326;2022-10-31T01:17:52;101997.16;;;11.91;100.00
45403;BME280;47427;51.976;5.326;2022-10-31T01:24:43;101985.56;;;11.86;100.00
45403;BME280;47427;51.976;5.326;2022-10-31T01:28:06;101978.88;;;11.74;100.00
45403;BME280;47427;51.976;5.326;2022-10-31T01:31:32;101980.25;;;11.64;100.00
45403;BME280;47427;51.976;5.326;2022-10-31T01:34:55;101978.75;;;11.48;100.00
45403;BME280;47427;51.976;5.326;2022-10-31T01:38:18;101979.13;;;11.36;100.00
45403;BME280;47427;51.976;5.326;2022-10-31T01:41:51;101967.94;;;11.19;100.00
45403;BME280;47427;51.976;5.326;2022-10-31T01:45:15;101978.94;;;11.11;100.00
45403;BME280;47427;51.976;5.326;2022-10-31T01:48:40;101964.41;;;10.98;100.00
45403;BME280;47427;51.976;5.326;2022-10-31T01:52:08;101977.34;;;10.93;100.00
45403;BME280;47427;51.976;5.326;2022-10-31T01:55:38;101969.06;;;10.84;100.00
45403;BME280;47427;51.976;5.326;2022-10-31T01:59:06;101977.84;;;10.84;100.00
45403;BME280;47427;51.976;5.326;2022-10-31T02:02:32;101971.50;;;10.79;100.00
45403;BME280;47427;51.976;5.326;2022-10-31T02:05:55;101975.56;;;10.73;100.00
45403;BME280;47427;51.976;5.326;2022-10-31T02:09:19;101969.78;;;10.60;100.00
45403;BME280;47427;51.976;5.326;2022-10-31T02:12:47;101967.75;;;10.53;100.00
45403;BME280;47427;51.976;5.326;2022-10-31T02:16:11;101972.84;;;10.50;100.00
45403;BME280;47427;51.976;5.326;2022-10-31T02:19:56;101974.56;;;10.50;100.00
45403;BME280;47427;51.976;5.326;2022-10-31T02:32:14;101968.84;;;10.58;100.00
45403;BME280;47427;51.976;5.326;2022-10-31T02:36:12;101975.66;;;10.55;100.00
45403;BME280;47427;51.976;5.326;2022-10-31T02:44:19;101982.66;;;10.54;100.00
45403;BME280;47427;51.976;5.326;2022-10-31T02:47:45;101979.38;;;10.60;100.00
45403;BME280;47427;51.976;5.326;2022-10-31T02:51:11;101982.09;;;10.61;100.00
45403;BME280;47427;51.976;5.326;2022-10-31T02:54:34;101983.63;;;10.56;100.00
45403;BME280;47427;51.976;5.326;2022-10-31T02:58:09;101970.50;;;10.56;100.00
45403;BME280;47427;51.976;5.326;2022-10-31T03:01:56;101973.00;;;10.53;100.00
45403;BME280;47427;51.976;5.326;2022-10-31T03:05:37;101981.75;;;10.54;100.00
45403;BME280;47427;51.976;5.326;2022-10-31T03:09:24;101972.84;;;10.50;100.00
45403;BME280;47427;51.976;5.326;2022-10-31T03:16:56;101961.59;;;10.33;100.00
45403;BME280;47427;51.976;5.326;2022-10-31T03:20:28;101975.63;;;10.34;100.00
45403;BME280;47427;51.976;5.326;2022-10-31T03:23:53;101982.72;;;10.36;100.00
45403;BME280;47427;51.976;5.326;2022-10-31T03:27:23;101977.25;;;10.32;100.00
45403;BME280;47427;51.976;5.326;2022-10-31T03:30:48;101986.25;;;10.37;100.00
45403;BME280;47427;51.976;5.326;2022-10-31T03:34:13;101964.16;;;10.32;100.00
45403;BME280;47427;51.976;5.326;2022-10-31T03:37:40;101970.41;;;10.35;100.00
45403;BME280;47427;51.976;5.326;2022-10-31T03:41:15;101980.78;;;10.32;100.00
45403;BME280;47427;51.976;5.326;2022-10-31T03:44:44;101971.56;;;10.23;100.00
45403;BME280;47427;51.976;5.326;2022-10-31T03:48:08;101973.38;;;10.24;100.00
45403;BME280;47427;51.976;5.326;2022-10-31T03:55:52;101996.53;;;10.14;100.00
45403;BME280;47427;51.976;5.326;2022-10-31T03:59:42;101994.44;;;10.07;100.00
45403;BME280;47427;51.976;5.326;2022-10-31T04:03:21;101984.72;;;10.05;100.00
45403;BME280;47427;51.976;5.326;2022-10-31T04:06:47;101983.91;;;10.06;100.00
45403;BME280;47427;51.976;5.326;2022-10-31T04:10:14;101981.06;;;10.01;100.00
45403;BME280;47427;51.976;5.326;2022-10-31T04:13:39;101958.63;;;9.88;100.00
45403;BME280;47427;51.976;5.326;2022-10-31T04:17:11;101966.84;;;9.96;100.00
45403;BME280;47427;51.976;5.326;2022-10-31T04:21:05;101978.91;;;9.92;100.00
45403;BME280;47427;51.976;5.326;2022-10-31T04:24:29;101979.75;;;9.91;100.00
45403;BME280;47427;51.976;5.326;2022-10-31T04:27:53;101967.78;;;9.79;100.00
45403;BME280;47427;51.976;5.326;2022-10-31T04:31:18;101976.16;;;9.71;100.00
45403;BME280;47427;51.976;5.326;2022-10-31T04:34:59;101970.34;;;9.59;100.00
45403;BME280;47427;51.976;5.326;2022-10-31T04:38:32;101968.25;;;9.52;100.00
45403;BME280;47427;51.976;5.326;2022-10-31T04:41:59;101964.50;;;9.47;100.00
45403;BME280;47427;51.976;5.326;2022-10-31T04:45:21;101979.28;;;9.45;100.00
45403;BME280;47427;51.976;5.326;2022-10-31T04:48:47;101965.56;;;9.32;100.00
45403;BME280;47427;51.976;5.326;2022-10-31T04:52:10;101958.09;;;9.22;100.00
45403;BME280;47427;51.976;5.326;2022-10-31T04:55:35;101965.19;;;9.25;100.00
45403;BME280;47427;51.976;5.326;2022-10-31T04:59:12;101971.47;;;9.28;100.00
45403;BME280;47427;51.976;5.326;2022-10-31T05:02:45;101974.41;;;9.35;100.00
45403;BME280;47427;51.976;5.326;2022-10-31T05:06:08;101968.31;;;9.36;100.00
45403;BME280;47427;51.976;5.326;2022-10-31T05:09:35;101973.06;;;9.43;100.00
45403;BME280;47427;51.976;5.326;2022-10-31T05:13:00;101969.16;;;9.35;100.00
45403;BME280;47427;51.976;5.326;2022-10-31T05:16:42;101959.94;;;9.25;100.00
45403;BME280;47427;51.976;5.326;2022-10-31T05:20:29;101956.22;;;9.20;100.00
45403;BME280;47427;51.976;5.326;2022-10-31T05:24:18;101960.94;;;9.27;100.00
45403;BME280;47427;51.976;5.326;2022-10-31T05:27:46;101954.56;;;9.22;100.00
45403;BME280;47427;51.976;5.326;2022-10-31T05:31:10;101949.84;;;9.15;100.00
45403;BME280;47427;51.976;5.326;2022-10-31T05:34:32;101952.16;;;9.08;100.00
45403;BME280;47427;51.976;5.326;2022-10-31T05:38:18;101955.69;;;9.09;100.00
45403;BME280;47427;51.976;5.326;2022-10-31T05:41:41;101950.03;;;9.01;100.00
45403;BME280;47427;51.976;5.326;2022-10-31T05:45:14;101949.88;;;8.98;100.00
45403;BME280;47427;51.976;5.326;2022-10-31T05:48:51;101950.34;;;9.07;100.00
45403;BME280;47427;51.976;5.326;2022-10-31T05:52:32;101953.06;;;9.09;100.00
45403;BME280;47427;51.976;5.326;2022-10-31T05:56:03;101963.75;;;9.14;100.00
45403;BME280;47427;51.976;5.326;2022-10-31T05:59:44;101948.63;;;9.08;100.00
45403;BME280;47427;51.976;5.326;2022-10-31T06:03:09;101952.09;;;9.07;100.00
45403;BME280;47427;51.976;5.326;2022-10-31T06:06:48;101952.53;;;9.16;100.00
45403;BME280;47427;51.976;5.326;2022-10-31T06:10:11;101941.38;;;9.20;100.00
45403;BME280;47427;51.976;5.326;2022-10-31T06:13:34;101935.03;;;9.15;100.00
45403;BME280;47427;51.976;5.326;2022-10-31T06:17:08;101945.00;;;9.22;100.00
45403;BME280;47427;51.976;5.326;2022-10-31T06:20:43;101945.78;;;9.21;100.00
45403;BME280;47427;51.976;5.326;2022-10-31T06:24:06;101944.28;;;9.26;100.00
45403;BME280;47427;51.976;5.326;2022-10-31T06:27:55;101938.91;;;9.23;100.00
45403;BME280;47427;51.976;5.326;2022-10-31T06:31:23;101935.03;;;9.15;100.00
45403;BME280;47427;51.976;5.326;2022-10-31T06:34:46;101952.09;;;9.25;100.00
45403;BME280;47427;51.976;5.326;2022-10-31T06:38:11;101957.34;;;9.43;100.00
45403;BME280;47427;51.976;5.326;2022-10-31T06:41:36;101955.00;;;9.49;100.00
45403;BME280;47427;51.976;5.326;2022-10-31T06:45:00;101951.06;;;9.57;100.00
45403;BME280;47427;51.976;5.326;2022-10-31T06:48:41;101933.50;;;9.56;100.00
45403;BME280;47427;51.976;5.326;2022-10-31T06:52:15;101947.13;;;9.67;100.00
45403;BME280;47427;51.976;5.326;2022-10-31T06:55:57;101950.31;;;9.79;100.00
45403;BME280;47427;51.976;5.326;2022-10-31T06:59:20;101962.97;;;9.88;100.00
45403;BME280;47427;51.976;5.326;2022-10-31T07:03:14;101954.63;;;9.96;100.00
45403;BME280;47427;51.976;5.326;2022-10-31T07:06:39;101962.03;;;10.05;100.00
45403;BME280;47427;51.976;5.326;2022-10-31T07:10:20;101942.72;;;10.03;100.00
45403;BME280;47427;51.976;5.326;2022-10-31T07:13:51;101951.16;;;10.15;100.00
45403;BME280;47427;51.976;5.326;2022-10-31T07:17:14;101946.97;;;10.38;100.00
45403;BME280;47427;51.976;5.326;2022-10-31T07:20:39;101953.03;;;10.78;100.00
45403;BME280;47427;51.976;5.326;2022-10-31T07:24:03;101951.28;;;10.98;100.00
45403;BME280;47427;51.976;5.326;2022-10-31T07:27:39;101950.78;;;11.06;100.00
45403;BME280;47427;51.976;5.326;2022-10-31T07:31:04;101957.47;;;11.21;100.00
45403;BME280;47427;51.976;5.326;2022-10-31T07:34:26;101955.22;;;11.51;100.00
45403;BME280;47427;51.976;5.326;2022-10-31T07:38:18;101956.22;;;11.77;100.00
45403;BME280;47427;51.976;5.326;2022-10-31T07:41:41;101955.06;;;11.91;100.00
45403;BME280;47427;51.976;5.326;2022-10-31T07:45:07;101967.25;;;12.12;100.00
45403;BME280;47427;51.976;5.326;2022-10-31T07:48:48;101960.00;;;12.29;100.00
45403;BME280;47427;51.976;5.326;2022-10-31T07:52:29;101965.53;;;12.61;100.00
45403;BME280;47427;51.976;5.326;2022-10-31T07:56:18;101967.97;;;12.80;100.00
45403;BME280;47427;51.976;5.326;2022-10-31T07:59:41;101959.13;;;13.04;100.00
45403;BME280;47427;51.976;5.326;2022-10-31T08:03:17;101974.09;;;13.05;100.00
45403;BME280;47427;51.976;5.326;2022-10-31T08:06:52;101980.69;;;13.17;100.00
45403;BME280;47427;51.976;5.326;2022-10-31T08:10:23;101978.69;;;13.10;100.00
45403;BME280;47427;51.976;5.326;2022-10-31T08:13:46;101978.31;;;14.38;100.00
45403;BME280;47427;51.976;5.326;2022-10-31T08:17:10;101980.38;;;16.25;96.65
45403;BME280;47427;51.976;5.326;2022-10-31T08:20:43;101977.44;;;18.11;89.79
45403;BME280;47427;51.976;5.326;2022-10-31T08:24:07;101962.88;;;18.51;86.56
45403;BME280;47427;51.976;5.326;2022-10-31T08:27:30;101972.63;;;18.55;83.60
45403;BME280;47427;51.976;5.326;2022-10-31T08:30:57;101972.22;;;17.58;84.77
45403;BME280;47427;51.976;5.326;2022-10-31T08:34:36;101968.25;;;16.37;87.18
45403;BME280;47427;51.976;5.326;2022-10-31T08:38:31;101968.88;;;15.84;87.53
45403;BME280;47427;51.976;5.326;2022-10-31T08:41:54;101968.38;;;16.00;87.14
45403;BME280;47427;51.976;5.326;2022-10-31T08:45:17;101953.28;;;16.40;86.89
45403;BME280;47427;51.976;5.326;2022-10-31T08:48:58;101946.19;;;16.38;86.13
45403;BME280;47427;51.976;5.326;2022-10-31T08:52:24;101941.72;;;16.35;86.10
45403;BME280;47427;51.976;5.326;2022-10-31T08:55:55;101939.84;;;16.30;86.02
45403;BME280;47427;51.976;5.326;2022-10-31T08:59:20;101943.44;;;16.32;86.62
45403;BME280;47427;51.976;5.326;2022-10-31T09:03:24;101947.34;;;16.52;85.27
45403;BME280;47427;51.976;5.326;2022-10-31T09:06:47;101939.56;;;16.60;85.01
45403;BME280;47427;51.976;5.326;2022-10-31T09:10:13;101927.09;;;16.54;84.74
45403;BME280;47427;51.976;5.326;2022-10-31T09:13:36;101927.94;;;16.52;85.95
45403;BME280;47427;51.976;5.326;2022-10-31T09:17:22;101919.94;;;16.50;86.23
45403;BME280;47427;51.976;5.326;2022-10-31T09:21:05;101918.88;;;16.40;86.92
45403;BME280;47427;51.976;5.326;2022-10-31T09:24:26;101907.28;;;16.35;87.27
45403;BME280;47427;51.976;5.326;2022-10-31T09:27:55;101899.91;;;16.19;87.40
45403;BME280;47427;51.976;5.326;2022-10-31T09:31:18;101916.19;;;16.39;87.95
45403;BME280;47427;51.976;5.326;2022-10-31T09:34:59;101902.50;;;16.63;86.24
45403;BME280;47427;51.976;5.326;2022-10-31T09:38:21;101899.91;;;16.66;86.43
45403;BME280;47427;51.976;5.326;2022-10-31T09:50:25;101898.19;;;19.58;78.12
45403;BME280;47427;51.976;5.326;2022-10-31T09:54:05;101892.13;;;22.24;70.86
45403;BME280;47427;51.976;5.326;2022-10-31T09:57:34;101886.75;;;23.45;62.75
45403;BME280;47427;51.976;5.326;2022-10-31T10:01:00;101876.03;;;23.42;64.69
45403;BME280;47427;51.976;5.326;2022-10-31T10:08:25;101861.31;;;20.59;68.57
45403;BME280;47427;51.976;5.326;2022-10-31T10:16:30;101877.97;;;18.68;75.03
45403;BME280;47427;51.976;5.326;2022-10-31T10:20:32;101871.41;;;18.32;77.90
45403;BME280;47427;51.976;5.326;2022-10-31T10:24:36;101871.50;;;18.41;77.79
45403;BME280;47427;51.976;5.326;2022-10-31T10:31:45;101856.78;;;17.92;78.99
45403;BME280;47427;51.976;5.326;2022-10-31T10:38:55;101828.78;;;17.48;80.71
45403;BME280;47427;51.976;5.326;2022-10-31T10:42:18;101810.03;;;17.36;81.56
45403;BME280;47427;51.976;5.326;2022-10-31T10:50:20;101809.84;;;17.24;82.03
45403;BME280;47427;51.976;5.326;2022-10-31T10:57:56;101782.66;;;17.39;82.35
45403;BME280;47427;51.976;5.326;2022-10-31T11:01:17;101776.97;;;17.11;83.43
45403;BME280;47427;51.976;5.326;2022-10-31T11:04:40;101784.03;;;17.10;84.27
45403;BME280;47427;51.976;5.326;2022-10-31T11:08:04;101791.25;;;17.21;83.82
45403;BME280;47427;51.976;5.326;2022-10-31T11:11:29;101793.19;;;17.34;83.37
45403;BME280;47427;51.976;5.326;2022-10-31T11:15:05;101794.25;;;17.45;82.89
45403;BME280;47427;51.976;5.326;2022-10-31T11:18:32;101806.91;;;17.02;84.49
45403;BME280;47427;51.976;5.326;2022-10-31T11:22:07;101788.41;;;17.07;85.27
45403;BME280;47427;51.976;5.326;2022-10-31T11:25:29;101771.47;;;16.99;85.53
45403;BME280;47427;51.976;5.326;2022-10-31T11:28:58;101755.75;;;17.11;85.66
45403;BME280;47427;51.976;5.326;2022-10-31T11:32:24;101744.91;;;16.93;86.10
45403;BME280;47427;51.976;5.326;2022-10-31T11:35:48;101753.72;;;16.93;86.01
45403;BME280;47427;51.976;5.326;2022-10-31T11:39:20;101739.44;;;16.82;87.10
45403;BME280;47427;51.976;5.326;2022-10-31T11:42:43;101725.25;;;16.78;87.18
45403;BME280;47427;51.976;5.326;2022-10-31T11:46:23;101700.47;;;16.76;87.44
45403;BME280;47427;51.976;5.326;2022-10-31T11:49:47;101683.69;;;16.77;87.65
45403;BME280;47427;51.976;5.326;2022-10-31T11:53:30;101675.72;;;16.77;87.69
45403;BME280;47427;51.976;5.326;2022-10-31T11:56:53;101681.19;;;16.85;87.78
45403;BME280;47427;51.976;5.326;2022-10-31T12:00:29;101688.41;;;16.97;87.82
45403;BME280;47427;51.976;5.326;2022-10-31T12:04:12;101662.88;;;17.05;87.23
45403;BME280;47427;51.976;5.326;2022-10-31T12:07:35;101658.88;;;17.41;86.77
45403;BME280;47427;51.976;5.326;2022-10-31T12:11:31;101647.53;;;17.55;85.98
45403;BME280;47427;51.976;5.326;2022-10-31T12:15:18;101642.66;;;17.97;84.82
45403;BME280;47427;51.976;5.326;2022-10-31T12:19:04;101630.50;;;18.28;83.01
45403;BME280;47427;51.976;5.326;2022-10-31T12:22:58;101611.22;;;18.61;81.84
45403;BME280;47427;51.976;5.326;2022-10-31T12:34:59;101604.09;;;21.31;71.49
45403;BME280;47427;51.976;5.326;2022-10-31T12:39:03;101599.88;;;20.84;72.30
45403;BME280;47427;51.976;5.326;2022-10-31T12:43:04;101577.81;;;20.29;73.94
45403;BME280;47427;51.976;5.326;2022-10-31T12:46:59;101576.97;;;20.21;75.19
45403;BME280;47427;51.976;5.326;2022-10-31T12:54:53;101568.03;;;19.22;76.65
45403;BME280;47427;51.976;5.326;2022-10-31T12:58:45;101564.41;;;18.87;78.23
45403;BME280;47427;51.976;5.326;2022-10-31T13:06:13;101545.53;;;18.34;80.45
45403;BME280;47427;51.976;5.326;2022-10-31T13:09:50;101532.34;;;18.54;80.48
45403;BME280;47427;51.976;5.326;2022-10-31T13:13:41;101508.63;;;19.82;77.35
45403;BME280;47427;51.976;5.326;2022-10-31T13:17:06;101503.88;;;21.96;68.40
45403;BME280;47427;51.976;5.326;2022-10-31T13:20:45;101493.97;;;22.79;66.17
45403;BME280;47427;51.976;5.326;2022-10-31T13:24:16;101492.88;;;22.27;66.00
45403;BME280;47427;51.976;5.326;2022-10-31T13:27:51;101487.50;;;21.40;68.69
45403;BME280;47427;51.976;5.326;2022-10-31T13:31:16;101484.13;;;21.11;69.94
45403;BME280;47427;51.976;5.326;2022-10-31T13:34:47;101475.50;;;20.70;70.93
45403;BME280;47427;51.976;5.326;2022-10-31T13:38:35;101463.28;;;20.19;72.85
45403;BME280;47427;51.976;5.326;2022-10-31T13:42:53;101448.28;;;19.88;74.20
45403;BME280;47427;51.976;5.326;2022-10-31T13:50:24;101434.13;;;19.33;76.86
45403;BME280;47427;51.976;5.326;2022-10-31T13:53:58;101425.25;;;19.15;77.03
45403;BME280;47427;51.976;5.326;2022-10-31T13:57:31;101425.25;;;18.88;78.65
45403;BME280;47427;51.976;5.326;2022-10-31T14:04:45;101418.91;;;18.39;80.30
45403;BME280;47427;51.976;5.326;2022-10-31T14:08:20;101415.31;;;18.21;81.26
45403;BME280;47427;51.976;5.326;2022-10-31T14:11:46;101419.66;;;18.08;82.19
45403;BME280;47427;51.976;5.326;2022-10-31T14:15:24;101412.56;;;18.02;82.65
45403;BME280;47427;51.976;5.326;2022-10-31T14:19:16;101395.72;;;17.97;82.82
45403;BME280;47427;51.976;5.326;2022-10-31T14:22:39;101384.97;;;17.75;83.42
45403;BME280;47427;51.976;5.326;2022-10-31T14:26:34;101386.72;;;17.76;83.49
45403;BME280;47427;51.976;5.326;2022-10-31T14:30:16;101384.06;;;17.70;84.26
45403;BME280;47427;51.976;5.326;2022-10-31T14:33:42;101371.66;;;17.69;84.34
45403;BME280;47427;51.976;5.326;2022-10-31T14:52:08;101354.66;;;17.32;86.30
45403;BME280;47427;51.976;5.326;2022-10-31T14:55:49;101338.66;;;17.20;86.67
45403;BME280;47427;51.976;5.326;2022-10-31T14:59:16;101324.47;;;17.16;86.63
45403;BME280;47427;51.976;5.326;2022-10-31T15:03:11;101334.28;;;17.31;86.36
45403;BME280;47427;51.976;5.326;2022-10-31T15:06:51;101315.59;;;17.14;86.72
45403;BME280;47427;51.976;5.326;2022-10-31T15:10:32;101329.84;;;17.25;86.65
45403;BME280;47427;51.976;5.326;2022-10-31T15:13:58;101324.53;;;17.24;86.53
45403;BME280;47427;51.976;5.326;2022-10-31T15:17:24;101319.22;;;17.19;86.75
45403;BME280;47427;51.976;5.326;2022-10-31T15:20:46;101310.38;;;17.20;87.01
45403;BME280;47427;51.976;5.326;2022-10-31T15:24:13;101297.03;;;17.11;86.93
45403;BME280;47427;51.976;5.326;2022-10-31T15:27:40;101300.56;;;17.08;86.78
45403;BME280;47427;51.976;5.326;2022-10-31T15:31:02;101308.56;;;17.15;87.24
45403;BME280;47427;51.976;5.326;2022-10-31T15:34:42;101271.41;;;17.07;87.46
45403;BME280;47427;51.976;5.326;2022-10-31T15:38:06;101277.50;;;16.98;87.97
45403;BME280;47427;51.976;5.326;2022-10-31T15:41:33;101268.63;;;16.93;87.92
45403;BME280;47427;51.976;5.326;2022-10-31T15:45:28;101275.56;;;16.77;88.39
45403;BME280;47427;51.976;5.326;2022-10-31T15:48:51;101272.88;;;16.73;88.80
45403;BME280;47427;51.976;5.326;2022-10-31T15:52:50;101255.97;;;16.55;89.04
45403;BME280;47427;51.976;5.326;2022-10-31T15:56:20;101240.75;;;16.31;89.62
45403;BME280;47427;51.976;5.326;2022-10-31T15:59:48;101244.88;;;16.01;91.52
45403;BME280;47427;51.976;5.326;2022-10-31T16:06:37;101246.06;;;15.53;93.14
45403;BME280;47427;51.976;5.326;2022-10-31T16:10:02;101247.63;;;15.34;94.46
45403;BME280;47427;51.976;5.326;2022-10-31T16:13:31;101247.44;;;15.22;95.19
45403;BME280;47427;51.976;5.326;2022-10-31T16:16:56;101236.75;;;15.13;95.71
45403;BME280;47427;51.976;5.326;2022-10-31T16:20:27;101231.28;;;15.01;95.97
45403;BME280;47427;51.976;5.326;2022-10-31T16:27:50;101222.13;;;14.77;97.25
45403;BME280;47427;51.976;5.326;2022-10-31T16:31:14;101224.75;;;14.76;97.96
45403;BME280;47427;51.976;5.326;2022-10-31T16:34:37;101217.59;;;14.68;97.90
45403;BME280;47427;51.976;5.326;2022-10-31T16:37:58;101221.88;;;14.59;98.99
45403;BME280;47427;51.976;5.326;2022-10-31T16:41:22;101212.97;;;14.54;99.57
45403;BME280;47427;51.976;5.326;2022-10-31T16:44:47;101214.00;;;14.63;99.29
45403;BME280;47427;51.976;5.326;2022-10-31T16:48:18;101212.50;;;14.79;99.01
45403;BME280;47427;51.976;5.326;2022-10-31T16:51:42;101210.03;;;14.91;98.47
45403;BME280;47427;51.976;5.326;2022-10-31T16:55:06;101194.09;;;14.88;98.52
45403;BME280;47427;51.976;5.326;2022-10-31T16:58:32;101188.78;;;14.84;98.91
45403;BME280;47427;51.976;5.326;2022-10-31T17:02:00;101184.28;;;14.77;98.88
45403;BME280;47427;51.976;5.326;2022-10-31T17:05:23;101191.13;;;14.65;99.47
45403;BME280;47427;51.976;5.326;2022-10-31T17:09:10;101195.31;;;14.51;100.00
45403;BME280;47427;51.976;5.326;2022-10-31T17:12:32;101181.19;;;14.49;100.00
45403;BME280;47427;51.976;5.326;2022-10-31T17:15:58;101171.31;;;14.36;100.00
45403;BME280;47427;51.976;5.326;2022-10-31T17:19:21;101170.22;;;14.24;100.00
45403;BME280;47427;51.976;5.326;2022-10-31T17:22:42;101164.78;;;14.15;100.00
45403;BME280;47427;51.976;5.326;2022-10-31T17:26:05;101155.94;;;14.12;100.00
45403;BME280;47427;51.976;5.326;2022-10-31T17:29:30;101155.81;;;14.04;100.00
45403;BME280;47427;51.976;5.326;2022-10-31T17:32:52;101141.66;;;13.99;100.00
45403;BME280;47427;51.976;5.326;2022-10-31T17:36:34;101145.09;;;13.95;100.00
45403;BME280;47427;51.976;5.326;2022-10-31T17:39:55;101140.63;;;13.89;100.00
45403;BME280;47427;51.976;5.326;2022-10-31T17:43:18;101135.41;;;13.94;100.00
45403;BME280;47427;51.976;5.326;2022-10-31T17:46:41;101123.09;;;13.93;100.00
45403;BME280;47427;51.976;5.326;2022-10-31T17:50:02;101127.41;;;13.89;100.00
45403;BME280;47427;51.976;5.326;2022-10-31T17:53:28;101111.50;;;13.84;100.00
45403;BME280;47427;51.976;5.326;2022-10-31T17:56:52;101097.44;;;13.82;100.00
45403;BME280;47427;51.976;5.326;2022-10-31T18:00:18;101101.00;;;13.86;100.00
45403;BME280;47427;51.976;5.326;2022-10-31T18:03:45;101085.22;;;13.89;100.00
45403;BME280;47427;51.976;5.326;2022-10-31T18:07:07;101074.53;;;13.81;100.00
45403;BME280;47427;51.976;5.326;2022-10-31T18:10:48;101079.78;;;13.80;100.00
45403;BME280;47427;51.976;5.326;2022-10-31T18:14:12;101105.41;;;13.85;100.00
45403;BME280;47427;51.976;5.326;2022-10-31T18:17:35;101098.31;;;13.84;100.00
45403;BME280;47427;51.976;5.326;2022-10-31T18:20:57;101093.03;;;13.83;100.00
45403;BME280;47427;51.976;5.326;2022-10-31T18:24:19;101095.59;;;13.80;100.00
45403;BME280;47427;51.976;5.326;2022-10-31T18:27:41;101090.16;;;13.68;100.00
45403;BME280;47427;51.976;5.326;2022-10-31T18:31:03;101085.59;;;13.59;100.00
45403;BME280;47427;51.976;5.326;2022-10-31T18:34:26;101078.53;;;13.58;100.00
45403;BME280;47427;51.976;5.326;2022-10-31T18:37:49;101083.81;;;13.59;100.00
45403;BME280;47427;51.976;5.326;2022-10-31T18:41:12;101069.53;;;13.45;100.00
45403;BME280;47427;51.976;5.326;2022-10-31T18:44:34;101075.81;;;13.53;100.00
45403;BME280;47427;51.976;5.326;2022-10-31T18:47:56;101062.59;;;13.52;100.00
45403;BME280;47427;51.976;5.326;2022-10-31T18:51:19;101068.81;;;13.54;100.00
45403;BME280;47427;51.976;5.326;2022-10-31T18:54:41;101048.59;;;13.53;100.00
45403;BME280;47427;51.976;5.326;2022-10-31T18:58:03;101063.56;;;13.55;100.00
45403;BME280;47427;51.976;5.326;2022-10-31T19:01:25;101054.81;;;13.59;100.00
45403;BME280;47427;51.976;5.326;2022-10-31T19:04:48;101055.56;;;13.51;100.00
45403;BME280;47427;51.976;5.326;2022-10-31T19:08:10;101061.72;;;13.50;100.00
45403;BME280;47427;51.976;5.326;2022-10-31T19:11:34;101064.41;;;13.53;100.00
45403;BME280;47427;51.976;5.326;2022-10-31T19:14:56;101055.69;;;13.58;100.00
45403;BME280;47427;51.976;5.326;2022-10-31T19:18:18;101057.41;;;13.56;100.00
45403;BME280;47427;51.976;5.326;2022-10-31T19:21:42;101049.47;;;13.53;100.00
45403;BME280;47427;51.976;5.326;2022-10-31T19:25:03;101053.94;;;13.57;100.00
45403;BME280;47427;51.976;5.326;2022-10-31T19:28:29;101018.56;;;13.44;100.00
45403;BME280;47427;51.976;5.326;2022-10-31T19:32:11;101044.28;;;13.59;100.00
45403;BME280;47427;51.976;5.326;2022-10-31T19:35:35;101028.41;;;13.56;100.00
45403;BME280;47427;51.976;5.326;2022-10-31T19:38:57;101029.28;;;13.55;100.00
45403;BME280;47427;51.976;5.326;2022-10-31T19:42:19;101021.25;;;13.49;100.00
45403;BME280;47427;51.976;5.326;2022-10-31T19:46:02;101027.38;;;13.45;100.00
45403;BME280;47427;51.976;5.326;2022-10-31T19:49:24;101030.91;;;13.47;100.00
45403;BME280;47427;51.976;5.326;2022-10-31T19:52:46;101030.09;;;13.50;99.96
45403;BME280;47427;51.976;5.326;2022-10-31T19:56:13;101028.22;;;13.44;99.59
45403;BME280;47427;51.976;5.326;2022-10-31T19:59:35;101021.09;;;13.38;99.65
45403;BME280;47427;51.976;5.326;2022-10-31T20:03:08;101033.47;;;13.44;99.40